UROMP EDXW-EDDW
Flight info
| Callsign | UROMP |
|---|---|
| Flight time | 0h 44m |
| Altitude | 21000 |
| Route | OLDI1B OLDIP KUXWA POBZU ARGUV DW455 |
| Aircraft | B737/M-V/N |
Departure
| Time | 2026-04-14 11:55 |
|---|---|
| Airport | Westerland Sylt Airport (EDXW) |
Arrival
| Time | 2026-04-14 12:40 |
|---|---|
| Airport | Bremen Airport (EDDW) |
| Time | Latitude | Longitude | Altitude | Speed | Heading |
|---|---|---|---|---|---|
| 2026-04-14 11:40 | 54.91239 | 8.32636 | 28 ft | 0 kts | 234° |
| 2026-04-14 11:50 | 54.91219 | 8.32599 | 27 ft | 7 kts | 198° |
| 2026-04-14 11:51 | 54.91162 | 8.32652 | 28 ft | 8 kts | 121° |
| 2026-04-14 11:51 | 54.91115 | 8.32792 | 29 ft | 15 kts | 128° |
| 2026-04-14 11:51 | 54.91046 | 8.32930 | 31 ft | 15 kts | 131° |
| 2026-04-14 11:51 | 54.90947 | 8.33104 | 31 ft | 15 kts | 143° |
| 2026-04-14 11:52 | 54.90847 | 8.33193 | 31 ft | 19 kts | 162° |
| 2026-04-14 11:52 | 54.90733 | 8.33224 | 30 ft | 30 kts | 176° |
| 2026-04-14 11:52 | 54.90376 | 8.33384 | 27 ft | 49 kts | 140° |
| 2026-04-14 11:52 | 54.90263 | 8.33731 | 28 ft | 49 kts | 102° |
| 2026-04-14 11:53 | 54.90252 | 8.34360 | 30 ft | 49 kts | 73° |
| 2026-04-14 11:53 | 54.90319 | 8.34956 | 31 ft | 38 kts | 79° |
| 2026-04-14 11:53 | 54.90346 | 8.35077 | 33 ft | 0 kts | 54° |
| 2026-04-14 11:53 | 54.90346 | 8.35080 | 33 ft | 0 kts | 74° |
| 2026-04-14 11:54 | 54.90353 | 8.35102 | 34 ft | 6 kts | 58° |
| 2026-04-14 11:54 | 54.90381 | 8.35157 | 35 ft | 9 kts | 23° |
| 2026-04-14 11:54 | 54.90431 | 8.35147 | 35 ft | 0 kts | 326° |
| 2026-04-14 11:55 | 54.90756 | 8.34746 | 35 ft | 116 kts | 324° |
| 2026-04-14 11:55 | 54.91688 | 8.33573 | 140 ft | 202 kts | 323° |
| 2026-04-14 11:55 | 54.92802 | 8.32221 | 1506 ft | 197 kts | 327° |
| 2026-04-14 11:56 | 54.94024 | 8.30833 | 3439 ft | 173 kts | 327° |
| 2026-04-14 11:56 | 54.94796 | 8.29952 | 3414 ft | 222 kts | 326° |
| 2026-04-14 11:56 | 54.96137 | 8.28429 | 4014 ft | 239 kts | 327° |
| 2026-04-14 11:56 | 54.97519 | 8.26740 | 3977 ft | 245 kts | 318° |
| 2026-04-14 11:57 | 54.98549 | 8.24437 | 3858 ft | 237 kts | 301° |
| 2026-04-14 11:57 | 54.99046 | 8.21757 | 3814 ft | 236 kts | 276° |
| 2026-04-14 11:57 | 54.98693 | 8.18019 | 3815 ft | 237 kts | 245° |
| 2026-04-14 11:57 | 54.98095 | 8.16423 | 3825 ft | 237 kts | 229° |
| 2026-04-14 11:58 | 54.96774 | 8.14714 | 3853 ft | 236 kts | 204° |
| 2026-04-14 11:58 | 54.95192 | 8.14232 | 4473 ft | 238 kts | 178° |
| 2026-04-14 11:58 | 54.93539 | 8.14884 | 5017 ft | 265 kts | 161° |
| 2026-04-14 11:58 | 54.91700 | 8.15878 | 5747 ft | 283 kts | 163° |
| 2026-04-14 11:59 | 54.89826 | 8.16849 | 6430 ft | 286 kts | 163° |
| 2026-04-14 11:59 | 54.87923 | 8.17831 | 7082 ft | 287 kts | 163° |
| 2026-04-14 11:59 | 54.85998 | 8.18770 | 7712 ft | 290 kts | 164° |
| 2026-04-14 11:59 | 54.84061 | 8.19706 | 8337 ft | 295 kts | 164° |
| 2026-04-14 12:00 | 54.81298 | 8.21041 | 9397 ft | 320 kts | 164° |
| 2026-04-14 12:00 | 54.79136 | 8.22084 | 10110 ft | 323 kts | 164° |
| 2026-04-14 12:00 | 54.76978 | 8.23123 | 10744 ft | 325 kts | 164° |
| 2026-04-14 12:00 | 54.75533 | 8.23818 | 11160 ft | 327 kts | 164° |
| 2026-04-14 12:01 | 54.73345 | 8.24871 | 11786 ft | 330 kts | 164° |
| 2026-04-14 12:01 | 54.70649 | 8.26167 | 12550 ft | 333 kts | 164° |
| 2026-04-14 12:01 | 54.69156 | 8.26884 | 12970 ft | 335 kts | 164° |
| 2026-04-14 12:01 | 54.66143 | 8.28330 | 13809 ft | 340 kts | 164° |
| 2026-04-14 12:02 | 54.64621 | 8.29060 | 14229 ft | 342 kts | 164° |
| 2026-04-14 12:02 | 54.62336 | 8.30155 | 14859 ft | 345 kts | 164° |
| 2026-04-14 12:02 | 54.60039 | 8.31255 | 15514 ft | 348 kts | 164° |
| 2026-04-14 12:02 | 54.56933 | 8.32741 | 16402 ft | 353 kts | 164° |
| 2026-04-14 12:03 | 54.55336 | 8.33504 | 16860 ft | 356 kts | 164° |
| 2026-04-14 12:03 | 54.52970 | 8.34634 | 17521 ft | 359 kts | 164° |
| 2026-04-14 12:03 | 54.50549 | 8.35790 | 18188 ft | 363 kts | 164° |
| 2026-04-14 12:03 | 54.47318 | 8.37330 | 19070 ft | 367 kts | 164° |
| 2026-04-14 12:04 | 54.44846 | 8.38508 | 19741 ft | 371 kts | 164° |
| 2026-04-14 12:04 | 54.42351 | 8.39695 | 20413 ft | 375 kts | 164° |
| 2026-04-14 12:04 | 54.39843 | 8.40887 | 20984 ft | 381 kts | 164° |
| 2026-04-14 12:04 | 54.38154 | 8.41690 | 21022 ft | 384 kts | 164° |
| 2026-04-14 12:05 | 54.34726 | 8.43317 | 21000 ft | 380 kts | 164° |
| 2026-04-14 12:05 | 54.32206 | 8.44512 | 20997 ft | 378 kts | 164° |
| 2026-04-14 12:05 | 54.30494 | 8.45323 | 21000 ft | 378 kts | 164° |
| 2026-04-14 12:05 | 54.27147 | 8.46908 | 21000 ft | 379 kts | 164° |
| 2026-04-14 12:06 | 54.24598 | 8.48113 | 21000 ft | 379 kts | 164° |
| 2026-04-14 12:06 | 54.22914 | 8.48909 | 21000 ft | 379 kts | 164° |
| 2026-04-14 12:06 | 54.20372 | 8.50110 | 20999 ft | 379 kts | 164° |
| 2026-04-14 12:06 | 54.17842 | 8.51303 | 21000 ft | 379 kts | 164° |
| 2026-04-14 12:07 | 54.15339 | 8.52483 | 21000 ft | 379 kts | 164° |
| 2026-04-14 12:07 | 54.11959 | 8.54075 | 21000 ft | 379 kts | 164° |
| 2026-04-14 12:07 | 54.10253 | 8.54878 | 21000 ft | 379 kts | 164° |
| 2026-04-14 12:07 | 54.06871 | 8.56468 | 20995 ft | 375 kts | 164° |
| 2026-04-14 12:08 | 54.05241 | 8.57232 | 20966 ft | 362 kts | 164° |
| 2026-04-14 12:08 | 54.02882 | 8.58339 | 20838 ft | 347 kts | 164° |
| 2026-04-14 12:08 | 54.00608 | 8.59405 | 19985 ft | 337 kts | 164° |
| 2026-04-14 12:08 | 53.98389 | 8.60444 | 19177 ft | 323 kts | 164° |
| 2026-04-14 12:09 | 53.96303 | 8.61420 | 18458 ft | 310 kts | 164° |
| 2026-04-14 12:09 | 53.94253 | 8.62379 | 17730 ft | 300 kts | 164° |
| 2026-04-14 12:09 | 53.92296 | 8.63294 | 17029 ft | 291 kts | 164° |
| 2026-04-14 12:09 | 53.89761 | 8.64477 | 16110 ft | 281 kts | 164° |
| 2026-04-14 12:10 | 53.88511 | 8.65061 | 15652 ft | 277 kts | 165° |
| 2026-04-14 12:10 | 53.86681 | 8.65915 | 14983 ft | 272 kts | 165° |
| 2026-04-14 12:10 | 53.84874 | 8.66758 | 14321 ft | 269 kts | 165° |
| 2026-04-14 12:10 | 53.83090 | 8.67590 | 13678 ft | 267 kts | 165° |
| 2026-04-14 12:11 | 53.81329 | 8.68410 | 13054 ft | 265 kts | 165° |
| 2026-04-14 12:11 | 53.79562 | 8.69233 | 12428 ft | 263 kts | 165° |
| 2026-04-14 12:11 | 53.77810 | 8.70048 | 11801 ft | 261 kts | 165° |
| 2026-04-14 12:11 | 53.76085 | 8.70851 | 11177 ft | 258 kts | 165° |
| 2026-04-14 12:12 | 53.74364 | 8.71650 | 10549 ft | 256 kts | 165° |
| 2026-04-14 12:12 | 53.72672 | 8.72436 | 10027 ft | 249 kts | 165° |
| 2026-04-14 12:12 | 53.71022 | 8.73202 | 10039 ft | 249 kts | 165° |
| 2026-04-14 12:12 | 53.69340 | 8.73983 | 10010 ft | 254 kts | 165° |
| 2026-04-14 12:13 | 53.67627 | 8.74777 | 10019 ft | 254 kts | 165° |
| 2026-04-14 12:13 | 53.65366 | 8.75825 | 10007 ft | 253 kts | 165° |
| 2026-04-14 12:13 | 53.64241 | 8.76346 | 10003 ft | 253 kts | 165° |
| 2026-04-14 12:13 | 53.61967 | 8.77399 | 10000 ft | 253 kts | 165° |
| 2026-04-14 12:14 | 53.60837 | 8.77922 | 10000 ft | 253 kts | 165° |
| 2026-04-14 12:14 | 53.59148 | 8.78703 | 10000 ft | 253 kts | 165° |
| 2026-04-14 12:14 | 53.57447 | 8.79510 | 9996 ft | 253 kts | 160° |
| 2026-04-14 12:14 | 53.55844 | 8.80684 | 10013 ft | 253 kts | 155° |
| 2026-04-14 12:15 | 53.54272 | 8.82014 | 10004 ft | 254 kts | 153° |
| 2026-04-14 12:15 | 53.52689 | 8.83390 | 9746 ft | 258 kts | 153° |
| 2026-04-14 12:15 | 53.51091 | 8.84778 | 9376 ft | 260 kts | 153° |
| 2026-04-14 12:15 | 53.49506 | 8.86155 | 9036 ft | 260 kts | 153° |
| 2026-04-14 12:16 | 53.47893 | 8.87556 | 8692 ft | 260 kts | 153° |
| 2026-04-14 12:16 | 53.46289 | 8.88948 | 8345 ft | 260 kts | 153° |
| 2026-04-14 12:16 | 53.44689 | 8.90335 | 8001 ft | 260 kts | 153° |
| 2026-04-14 12:16 | 53.43095 | 8.91716 | 7662 ft | 260 kts | 153° |
| 2026-04-14 12:17 | 53.41483 | 8.93113 | 7315 ft | 260 kts | 153° |
| 2026-04-14 12:17 | 53.39884 | 8.94498 | 6967 ft | 260 kts | 153° |
| 2026-04-14 12:17 | 53.38282 | 8.95883 | 6625 ft | 260 kts | 153° |
| 2026-04-14 12:17 | 53.36687 | 8.97263 | 6283 ft | 259 kts | 153° |
| 2026-04-14 12:18 | 53.35073 | 8.98658 | 5932 ft | 259 kts | 153° |
| 2026-04-14 12:18 | 53.33477 | 9.00036 | 5586 ft | 259 kts | 153° |
| 2026-04-14 12:18 | 53.31916 | 9.01383 | 5468 ft | 249 kts | 153° |
| 2026-04-14 12:18 | 53.30387 | 9.02701 | 5312 ft | 243 kts | 153° |
| 2026-04-14 12:19 | 53.28925 | 9.03962 | 5169 ft | 236 kts | 153° |
| 2026-04-14 12:19 | 53.27460 | 9.05224 | 5000 ft | 233 kts | 153° |
| 2026-04-14 12:19 | 53.26030 | 9.06456 | 4887 ft | 232 kts | 153° |
| 2026-04-14 12:19 | 53.24604 | 9.07681 | 4864 ft | 233 kts | 154° |
| 2026-04-14 12:20 | 53.22546 | 9.08855 | 4815 ft | 235 kts | 162° |
| 2026-04-14 12:20 | 53.21507 | 9.09395 | 4575 ft | 241 kts | 162° |
| 2026-04-14 12:20 | 53.19916 | 9.10220 | 4172 ft | 235 kts | 162° |
| 2026-04-14 12:20 | 53.18381 | 9.11014 | 3771 ft | 228 kts | 162° |
| 2026-04-14 12:21 | 53.16862 | 9.11801 | 3409 ft | 232 kts | 162° |
| 2026-04-14 12:21 | 53.15259 | 9.12166 | 3020 ft | 237 kts | 182° |
| 2026-04-14 12:21 | 53.13634 | 9.12045 | 2852 ft | 231 kts | 182° |
| 2026-04-14 12:21 | 53.12069 | 9.11919 | 2815 ft | 221 kts | 182° |
| 2026-04-14 12:22 | 53.10574 | 9.11799 | 2816 ft | 209 kts | 182° |
| 2026-04-14 12:22 | 53.09118 | 9.11599 | 2800 ft | 210 kts | 193° |
| 2026-04-14 12:22 | 53.07838 | 9.10487 | 2808 ft | 210 kts | 220° |
| 2026-04-14 12:22 | 53.06767 | 9.08833 | 2828 ft | 213 kts | 227° |
| 2026-04-14 12:23 | 53.06076 | 9.06680 | 2827 ft | 212 kts | 256° |
| 2026-04-14 12:23 | 53.05918 | 9.04260 | 2867 ft | 208 kts | 265° |
| 2026-04-14 12:23 | 53.05817 | 9.02052 | 2803 ft | 178 kts | 264° |
| 2026-04-14 12:23 | 53.05631 | 8.99430 | 2788 ft | 170 kts | 263° |
| 2026-04-14 12:24 | 53.05535 | 8.98116 | 2829 ft | 174 kts | 263° |
| 2026-04-14 12:24 | 53.05387 | 8.96102 | 2818 ft | 176 kts | 263° |
| 2026-04-14 12:24 | 53.05240 | 8.94086 | 2829 ft | 176 kts | 263° |
| 2026-04-14 12:24 | 53.05186 | 8.92030 | 2716 ft | 176 kts | 272° |
| 2026-04-14 12:25 | 53.05149 | 8.90008 | 2527 ft | 177 kts | 265° |
| 2026-04-14 12:25 | 53.04945 | 8.87993 | 2122 ft | 177 kts | 258° |
| 2026-04-14 12:25 | 53.04758 | 8.86015 | 1553 ft | 169 kts | 265° |
| 2026-04-14 12:25 | 53.04672 | 8.84116 | 968 ft | 168 kts | 270° |
| 2026-04-14 12:26 | 53.04731 | 8.82184 | 439 ft | 169 kts | 274° |
| 2026-04-14 12:26 | 53.04726 | 8.80264 | 46 ft | 156 kts | 269° |
| 2026-04-14 12:26 | 53.04676 | 8.78478 | 341 ft | 171 kts | 265° |
| 2026-04-14 12:26 | 53.04539 | 8.76383 | 1080 ft | 208 kts | 262° |
| 2026-04-14 12:27 | 53.04259 | 8.73642 | 1542 ft | 276 kts | 259° |
| 2026-04-14 12:27 | 53.03841 | 8.70519 | 2093 ft | 260 kts | 256° |
| 2026-04-14 12:27 | 53.03390 | 8.67777 | 2372 ft | 233 kts | 255° |
| 2026-04-14 12:27 | 53.02773 | 8.65466 | 2519 ft | 212 kts | 232° |
| 2026-04-14 12:28 | 53.01683 | 8.63995 | 2772 ft | 202 kts | 210° |
| 2026-04-14 12:28 | 53.00397 | 8.63021 | 3199 ft | 208 kts | 200° |
| 2026-04-14 12:28 | 52.98953 | 8.62651 | 3288 ft | 214 kts | 175° |
| 2026-04-14 12:28 | 52.97503 | 8.63233 | 3282 ft | 213 kts | 156° |
| 2026-04-14 12:29 | 52.96344 | 8.64692 | 3250 ft | 211 kts | 128° |
| 2026-04-14 12:29 | 52.95723 | 8.66869 | 3225 ft | 210 kts | 101° |
| 2026-04-14 12:29 | 52.95682 | 8.69269 | 3226 ft | 210 kts | 88° |
| 2026-04-14 12:29 | 52.95746 | 8.71755 | 3257 ft | 225 kts | 88° |
| 2026-04-14 12:30 | 52.95816 | 8.74407 | 3341 ft | 231 kts | 88° |
| 2026-04-14 12:30 | 52.95887 | 8.77090 | 3354 ft | 231 kts | 88° |
| 2026-04-14 12:30 | 52.95958 | 8.79744 | 3339 ft | 228 kts | 88° |
| 2026-04-14 12:30 | 52.96025 | 8.82308 | 3284 ft | 219 kts | 88° |
| 2026-04-14 12:31 | 52.96091 | 8.84795 | 3223 ft | 211 kts | 88° |
| 2026-04-14 12:31 | 52.96153 | 8.87171 | 3142 ft | 206 kts | 88° |
| 2026-04-14 12:31 | 52.96215 | 8.89529 | 3088 ft | 206 kts | 88° |
| 2026-04-14 12:31 | 52.96277 | 8.91920 | 3057 ft | 207 kts | 88° |
| 2026-04-14 12:32 | 52.96339 | 8.94314 | 3035 ft | 208 kts | 88° |
| 2026-04-14 12:32 | 52.96402 | 8.96725 | 3010 ft | 208 kts | 88° |
| 2026-04-14 12:32 | 52.96464 | 8.99128 | 2985 ft | 208 kts | 88° |
| 2026-04-14 12:32 | 52.96526 | 9.01512 | 2960 ft | 208 kts | 88° |
| 2026-04-14 12:33 | 52.96587 | 9.03890 | 2935 ft | 208 kts | 88° |
| 2026-04-14 12:33 | 52.96648 | 9.06284 | 2910 ft | 208 kts | 88° |
| 2026-04-14 12:33 | 52.96709 | 9.08679 | 2885 ft | 207 kts | 87° |
| 2026-04-14 12:33 | 52.96771 | 9.11093 | 2860 ft | 207 kts | 87° |
| 2026-04-14 12:34 | 52.96847 | 9.13478 | 2829 ft | 207 kts | 81° |
| 2026-04-14 12:34 | 52.97400 | 9.15658 | 2802 ft | 206 kts | 52° |
| 2026-04-14 12:34 | 52.98495 | 9.17124 | 2826 ft | 207 kts | 24° |
| 2026-04-14 12:34 | 52.99899 | 9.17584 | 2831 ft | 207 kts | 356° |
| 2026-04-14 12:35 | 53.01321 | 9.17319 | 2834 ft | 207 kts | 353° |
| 2026-04-14 12:35 | 53.02743 | 9.17001 | 2824 ft | 206 kts | 348° |
| 2026-04-14 12:35 | 53.04026 | 9.15980 | 2824 ft | 207 kts | 321° |
| 2026-04-14 12:35 | 53.04972 | 9.14206 | 2818 ft | 208 kts | 296° |
| 2026-04-14 12:36 | 53.05238 | 9.11853 | 2833 ft | 206 kts | 269° |
| 2026-04-14 12:36 | 53.05222 | 9.09483 | 2838 ft | 208 kts | 269° |
| 2026-04-14 12:36 | 53.05198 | 9.07083 | 2857 ft | 206 kts | 269° |
| 2026-04-14 12:36 | 53.05175 | 9.04728 | 2792 ft | 204 kts | 269° |
| 2026-04-14 12:37 | 53.05151 | 9.02386 | 2634 ft | 202 kts | 269° |
| 2026-04-14 12:37 | 53.05128 | 9.00057 | 2481 ft | 201 kts | 269° |
| 2026-04-14 12:37 | 53.05104 | 8.97738 | 2321 ft | 196 kts | 269° |
| 2026-04-14 12:37 | 53.05082 | 8.95548 | 2140 ft | 185 kts | 269° |
| 2026-04-14 12:38 | 53.05033 | 8.91359 | 1407 ft | 177 kts | 268° |
| 2026-04-14 12:38 | 53.04983 | 8.89370 | 1095 ft | 170 kts | 267° |
| 2026-04-14 12:38 | 53.04905 | 8.87449 | 807 ft | 163 kts | 266° |
| 2026-04-14 12:39 | 53.04830 | 8.85632 | 596 ft | 157 kts | 267° |
| 2026-04-14 12:39 | 53.04790 | 8.83814 | 386 ft | 157 kts | 268° |
| 2026-04-14 12:39 | 53.04752 | 8.82023 | 182 ft | 155 kts | 268° |
| 2026-04-14 12:39 | 53.04720 | 8.80255 | 30 ft | 146 kts | 268° |
| 2026-04-14 12:40 | 53.04684 | 8.78651 | 9 ft | 124 kts | 268° |
| 2026-04-14 12:40 | 53.04669 | 8.77929 | 12 ft | 24 kts | 268° |
| 2026-04-14 12:40 | 53.04663 | 8.77565 | 14 ft | 26 kts | 275° |
| 2026-04-14 12:40 | 53.04768 | 8.77451 | 15 ft | 17 kts | 5° |
| 2026-04-14 12:41 | 53.04870 | 8.77496 | 15 ft | 15 kts | 23° |
| 2026-04-14 12:41 | 53.04970 | 8.77625 | 13 ft | 21 kts | 47° |
| 2026-04-14 12:41 | 53.05082 | 8.77826 | 12 ft | 24 kts | 47° |
| 2026-04-14 12:41 | 53.05177 | 8.78035 | 12 ft | 17 kts | 65° |
| 2026-04-14 12:42 | 53.05190 | 8.78143 | 12 ft | 5 kts | 95° |
| 2026-04-14 12:42 | 53.05187 | 8.78179 | 13 ft | 1 kts | 99° |
| 2026-04-14 12:42 | 53.05183 | 8.78213 | 13 ft | 6 kts | 103° |
| 2026-04-14 12:42 | 53.05164 | 8.78323 | 15 ft | 9 kts | 110° |
| 2026-04-14 12:43 | 53.05138 | 8.78407 | 14 ft | 7 kts | 128° |
| 2026-04-14 12:43 | 53.05140 | 8.78469 | 15 ft | 4 kts | 54° |
| 2026-04-14 12:43 | 53.05155 | 8.78499 | 15 ft | 1 kts | 50° |
| 2026-04-14 12:43 | 53.05161 | 8.78511 | 15 ft | 0 kts | 50° |
| 2026-04-14 12:44 | 53.05168 | 8.78524 | 16 ft | 0 kts | 50° |
| 2026-04-14 12:44 | 53.05170 | 8.78528 | 16 ft | 0 kts | 50° |
| 2026-04-14 12:44 | 53.05170 | 8.78529 | 16 ft | 0 kts | 50° |